Time;durP1;ratioP1;P1;durP2;ratioP2;P2;SDS_P1;SDS_P2;PMS_P1;PMS_P2;Temp;Humidity;BMP_temperature;BMP_pressure;BME280_temperature;BME280_humidity;BME280_pressure;Samples;Min_cycle;Max_cycle;Signal;HPM_P1;HPM_P2
2022/10/23 00:01:25;;;;;;;98.47;33.47;;;10.60;99.90;;;;;;5071269;28;20064;-66
2022/10/23 00:03:55;;;;;;;107.35;34.67;;;10.60;99.90;;;;;;5038110;28;20049;-66
2022/10/23 00:06:21;;;;;;;95.95;33.08;;;10.60;99.90;;;;;;5034045;28;20041;-66
2022/10/23 00:08:47;;;;;;;109.72;34.55;;;10.70;99.90;;;;;;5042244;28;20033;-66
2022/10/23 00:11:16;;;;;;;102.60;34.15;;;10.60;99.90;;;;;;5037473;28;20040;-66
2022/10/23 00:13:42;;;;;;;106.50;33.78;;;10.70;99.90;;;;;;5042182;28;20062;-66
2022/10/23 00:16:09;;;;;;;101.65;32.58;;;10.70;99.90;;;;;;5036253;28;20121;-66
2022/10/23 00:18:35;;;;;;;93.88;33.22;;;10.60;99.90;;;;;;5033759;28;20094;-66
2022/10/23 00:21:02;;;;;;;103.65;34.95;;;10.70;99.90;;;;;;5034380;28;20037;-65
2022/10/23 00:23:28;;;;;;;97.90;33.53;;;10.70;99.90;;;;;;5029460;28;20599;-66
2022/10/23 00:25:53;;;;;;;106.65;35.72;;;10.70;99.90;;;;;;5039002;28;20120;-66
2022/10/23 00:28:19;;;;;;;91.32;33.20;;;10.70;99.90;;;;;;5040582;28;20082;-66
2022/10/23 00:30:44;;;;;;;101.07;34.33;;;10.70;99.90;;;;;;5032667;28;20819;-66
2022/10/23 00:33:10;;;;;;;93.47;32.30;;;10.60;99.90;;;;;;5035440;28;20040;-66
2022/10/23 00:35:40;;;;;;;92.40;32.63;;;10.70;99.90;;;;;;5068066;28;20067;-65
2022/10/23 00:38:07;;;;;;;100.63;32.97;;;10.60;99.90;;;;;;5065185;28;20487;-66
2022/10/23 00:40:33;;;;;;;97.18;33.63;;;10.70;99.90;;;;;;5039486;28;20036;-66
2022/10/23 00:42:58;;;;;;;95.25;34.25;;;10.60;99.90;;;;;;5038285;28;20045;-66
2022/10/23 00:45:30;;;;;;;95.82;32.50;;;10.60;99.90;;;;;;5035261;28;20399;-66
2022/10/23 00:47:56;;;;;;;91.35;32.65;;;10.60;99.90;;;;;;5029196;28;20041;-66
2022/10/23 00:50:24;;;;;;;84.47;31.77;;;10.60;99.90;;;;;;5033461;28;20042;-66
2022/10/23 00:52:53;;;;;;;95.13;32.13;;;10.50;99.90;;;;;;5035568;28;20323;-66
2022/10/23 00:55:20;;;;;;;98.10;32.60;;;10.50;99.90;;;;;;5043406;28;20461;-66
2022/10/23 00:57:49;;;;;;;99.82;33.78;;;10.50;99.90;;;;;;5041442;28;20036;-66
2022/10/23 01:00:24;;;;;;;92.07;32.88;;;10.50;99.90;;;;;;5036504;28;20048;-65
2022/10/23 01:02:50;;;;;;;100.70;34.22;;;10.50;99.90;;;;;;5069435;28;20132;-66
2022/10/23 01:05:17;;;;;;;85.10;33.58;;;10.40;99.90;;;;;;5035213;28;20045;-66
2022/10/23 01:07:55;;;;;;;89.55;32.58;;;10.40;99.90;;;;;;5039041;28;20094;-66
2022/10/23 01:10:31;;;;;;;100.22;34.78;;;10.30;99.90;;;;;;5071270;28;20500;-66
2022/10/23 01:13:07;;;;;;;87.25;33.33;;;10.30;99.90;;;;;;5037736;28;20052;-66
2022/10/23 01:15:35;;;;;;;91.78;34.00;;;10.30;99.90;;;;;;5038696;28;20510;-66
2022/10/23 01:18:01;;;;;;;94.50;34.53;;;10.30;99.90;;;;;;5068259;28;20041;-65
2022/10/23 01:20:51;;;;;;;81.72;33.95;;;10.30;99.90;;;;;;5041417;28;21642;-65
2022/10/23 01:23:25;;;;;;;94.97;34.58;;;10.30;99.90;;;;;;5036857;28;20044;-65
2022/10/23 01:26:01;;;;;;;87.50;34.38;;;10.20;99.90;;;;;;5070107;28;20042;-65
2022/10/23 01:28:34;;;;;;;89.18;33.28;;;10.20;99.90;;;;;;5066354;28;20037;-65
2022/10/23 01:31:03;;;;;;;91.55;34.63;;;10.20;99.90;;;;;;5035579;28;20032;-65
2022/10/23 01:33:39;;;;;;;96.43;35.22;;;10.30;99.90;;;;;;5036905;28;20037;-65
2022/10/23 01:36:09;;;;;;;88.40;35.33;;;10.30;99.90;;;;;;5037048;28;20069;-65
2022/10/23 01:38:41;;;;;;;103.53;36.92;;;10.30;99.90;;;;;;5067461;28;20049;-66
2022/10/23 01:41:19;;;;;;;117.53;38.70;;;10.30;99.90;;;;;;5034207;28;20033;-66
2022/10/23 01:44:00;;;;;;;113.00;38.40;;;10.20;99.90;;;;;;5066909;28;20068;-66
2022/10/23 01:46:26;;;;;;;105.47;36.97;;;10.30;99.90;;;;;;5035529;28;20577;-66
2022/10/23 01:48:54;;;;;;;115.93;40.17;;;10.30;99.90;;;;;;5034701;28;20080;-66
2022/10/23 01:51:24;;;;;;;109.80;38.17;;;10.30;99.90;;;;;;5036807;28;20044;-66
2022/10/23 01:53:54;;;;;;;136.38;42.08;;;10.40;99.90;;;;;;5032033;28;20784;-66
2022/10/23 01:56:31;;;;;;;117.97;40.13;;;10.50;99.90;;;;;;5044972;28;20079;-66
2022/10/23 01:59:00;;;;;;;113.82;38.58;;;10.50;99.90;;;;;;5035969;28;20448;-66
2022/10/23 02:01:29;;;;;;;105.28;37.60;;;10.50;99.90;;;;;;5040195;28;20055;-66
2022/10/23 02:03:56;;;;;;;110.03;37.47;;;10.50;99.90;;;;;;5035996;28;20459;-66
2022/10/23 02:06:22;;;;;;;110.93;38.20;;;10.60;99.90;;;;;;5039765;28;20136;-66
2022/10/23 02:08:48;;;;;;;96.28;36.25;;;10.60;99.90;;;;;;5034761;28;20132;-66
2022/10/23 02:11:19;;;;;;;90.57;33.45;;;10.70;99.90;;;;;;5038325;28;20036;-66
2022/10/23 02:14:10;;;;;;;77.75;31.58;;;10.60;99.90;;;;;;5035300;28;20081;-66
2022/10/23 02:16:58;;;;;;;86.88;32.60;;;10.60;99.90;;;;;;5032289;28;20416;-66
2022/10/23 02:19:24;;;;;;;80.30;31.38;;;10.60;99.90;;;;;;5065676;28;20049;-66
2022/10/23 02:22:05;;;;;;;91.15;33.90;;;10.50;99.90;;;;;;5033229;28;20763;-66
2022/10/23 02:24:37;;;;;;;100.43;36.47;;;10.50;99.90;;;;;;5035599;28;20037;-66
2022/10/23 02:27:17;;;;;;;92.10;33.88;;;10.50;99.90;;;;;;5039772;28;20084;-66
2022/10/23 02:29:50;;;;;;;102.85;35.42;;;10.50;99.90;;;;;;5037013;28;20069;-66
2022/10/23 02:32:20;;;;;;;94.90;36.08;;;10.40;99.90;;;;;;5034977;28;20124;-66
2022/10/23 02:34:46;;;;;;;102.95;38.00;;;10.40;99.90;;;;;;5039856;28;20036;-66
2022/10/23 02:37:12;;;;;;;95.50;36.22;;;10.40;99.90;;;;;;5033426;28;20051;-66
2022/10/23 02:39:38;;;;;;;102.22;35.95;;;10.50;99.90;;;;;;5033273;28;20037;-66
2022/10/23 02:42:07;;;;;;;99.57;35.90;;;10.50;99.90;;;;;;5071225;28;20147;-66
2022/10/23 02:44:47;;;;;;;102.03;36.72;;;10.50;99.90;;;;;;5034324;28;20028;-66
2022/10/23 02:47:30;;;;;;;100.57;36.92;;;10.50;99.90;;;;;;5033785;28;20045;-66
2022/10/23 02:50:20;;;;;;;92.85;37.20;;;10.60;99.90;;;;;;5066612;28;20049;-66
2022/10/23 02:52:45;;;;;;;108.22;38.72;;;10.60;99.90;;;;;;5039778;28;20454;-66
2022/10/23 02:55:48;;;;;;;107.25;38.90;;;10.60;99.90;;;;;;5036057;28;20127;-66
2022/10/23 02:58:34;;;;;;;112.53;38.45;;;10.60;99.90;;;;;;5036986;28;20067;-66
2022/10/23 03:01:16;;;;;;;107.75;37.67;;;10.60;99.90;;;;;;5034374;28;20120;-66
2022/10/23 03:03:53;;;;;;;112.40;40.08;;;10.60;99.90;;;;;;5034329;28;20045;-66
2022/10/23 03:06:20;;;;;;;122.70;40.65;;;10.60;99.90;;;;;;5034253;28;20052;-66
2022/10/23 03:08:58;;;;;;;101.20;38.35;;;10.60;99.90;;;;;;5034258;28;20117;-66
2022/10/23 03:11:25;;;;;;;105.90;38.05;;;10.50;99.90;;;;;;5052906;28;20041;-66
2022/10/23 03:13:51;;;;;;;109.68;38.53;;;10.50;99.90;;;;;;5035732;28;20438;-66
2022/10/23 03:16:16;;;;;;;111.85;39.53;;;10.50;99.90;;;;;;5037711;28;20045;-66
2022/10/23 03:18:42;;;;;;;107.57;38.72;;;10.60;99.90;;;;;;5029933;28;20095;-66
2022/10/23 03:21:08;;;;;;;114.30;39.13;;;10.60;99.90;;;;;;5031862;28;20045;-66
2022/10/23 03:23:33;;;;;;;113.75;40.10;;;10.50;99.90;;;;;;5036397;28;20428;-66
2022/10/23 03:25:59;;;;;;;109.18;38.75;;;10.50;99.90;;;;;;5061423;28;20477;-66
2022/10/23 03:28:25;;;;;;;122.22;41.35;;;10.50;99.90;;;;;;5065234;28;20504;-66
2022/10/23 03:30:51;;;;;;;115.57;40.78;;;10.50;99.90;;;;;;5037263;28;20487;-66
2022/10/23 03:33:17;;;;;;;106.20;39.58;;;10.40;99.90;;;;;;5038120;28;20094;-66
2022/10/23 03:35:43;;;;;;;111.88;38.65;;;10.40;99.90;;;;;;5037539;28;20744;-66
2022/10/23 03:38:08;;;;;;;114.82;40.13;;;10.50;99.90;;;;;;5044403;28;20049;-66
2022/10/23 03:40:34;;;;;;;108.70;39.20;;;10.40;99.90;;;;;;5042771;28;20041;-66
2022/10/23 03:43:00;;;;;;;112.35;37.83;;;10.40;99.90;;;;;;5038018;28;20040;-66
2022/10/23 03:45:25;;;;;;;115.00;39.90;;;10.40;99.90;;;;;;5034463;28;20079;-66
2022/10/23 03:47:51;;;;;;;116.82;40.63;;;10.50;99.90;;;;;;5035499;28;21443;-66
2022/10/23 03:50:18;;;;;;;114.25;39.35;;;10.40;99.90;;;;;;5039342;28;20516;-66
2022/10/23 03:52:44;;;;;;;109.13;39.90;;;10.40;99.90;;;;;;5070998;28;20079;-66
2022/10/23 03:55:10;;;;;;;111.00;40.05;;;10.40;99.90;;;;;;5039711;28;20065;-66
2022/10/23 03:57:36;;;;;;;123.40;42.63;;;10.40;99.90;;;;;;5053416;28;20060;-66
2022/10/23 04:00:05;;;;;;;105.18;39.15;;;10.40;99.90;;;;;;5025420;28;20641;-66
2022/10/23 04:02:31;;;;;;;120.35;41.35;;;10.40;99.90;;;;;;5062285;28;20044;-66
2022/10/23 04:04:57;;;;;;;106.38;40.00;;;10.40;99.90;;;;;;5033906;28;20040;-66
2022/10/23 04:07:22;;;;;;;120.18;40.42;;;10.30;99.90;;;;;;5029717;28;20041;-66
2022/10/23 04:09:48;;;;;;;111.32;40.30;;;10.30;99.90;;;;;;5033701;28;20041;-66
2022/10/23 04:12:13;;;;;;;116.03;41.58;;;10.40;99.90;;;;;;5068293;28;20033;-66
2022/10/23 04:14:39;;;;;;;118.13;41.42;;;10.40;99.90;;;;;;5031594;28;20033;-66
2022/10/23 04:17:04;;;;;;;110.10;37.85;;;10.30;99.90;;;;;;5034936;28;20051;-67
2022/10/23 04:19:30;;;;;;;108.75;39.53;;;10.40;99.90;;;;;;5032409;28;20492;-66
2022/10/23 04:21:56;;;;;;;116.38;41.90;;;10.30;99.90;;;;;;5031613;28;20630;-66
2022/10/23 04:24:23;;;;;;;133.00;43.08;;;10.30;99.90;;;;;;5033135;28;20368;-66
2022/10/23 04:26:49;;;;;;;125.70;41.60;;;10.40;99.90;;;;;;5031398;28;20037;-66
2022/10/23 04:29:14;;;;;;;119.65;41.20;;;10.40;99.90;;;;;;5032876;28;20091;-66
2022/10/23 04:31:40;;;;;;;123.43;40.63;;;10.30;99.90;;;;;;5030423;28;20589;-67
2022/10/23 04:34:05;;;;;;;106.18;39.33;;;10.30;99.90;;;;;;5030646;28;20140;-67
2022/10/23 04:36:31;;;;;;;116.05;39.88;;;10.30;99.90;;;;;;5034359;28;20487;-67
2022/10/23 04:38:57;;;;;;;106.00;37.53;;;10.20;99.90;;;;;;5032554;28;20416;-67
2022/10/23 04:41:22;;;;;;;143.00;41.78;;;10.30;99.90;;;;;;5037153;28;20052;-67
2022/10/23 04:43:48;;;;;;;108.43;38.75;;;10.20;99.90;;;;;;5033190;28;20120;-67
2022/10/23 04:46:13;;;;;;;110.95;37.95;;;10.20;99.90;;;;;;5035085;28;20036;-67
2022/10/23 04:48:39;;;;;;;108.35;37.67;;;10.20;99.90;;;;;;5071858;28;20128;-67
2022/10/23 04:51:05;;;;;;;120.85;39.10;;;10.20;99.90;;;;;;5043595;28;20060;-67
2022/10/23 04:53:31;;;;;;;119.82;39.80;;;10.10;99.90;;;;;;5047868;28;20507;-67
2022/10/23 04:55:58;;;;;;;122.95;40.00;;;10.10;99.90;;;;;;5046869;28;20049;-67
2022/10/23 04:58:25;;;;;;;107.72;37.92;;;10.10;99.90;;;;;;5049875;28;20047;-67
2022/10/23 05:00:51;;;;;;;114.47;37.90;;;10.00;99.90;;;;;;5041337;28;20049;-67
2022/10/23 05:03:18;;;;;;;110.28;38.10;;;10.00;99.90;;;;;;5042796;28;20052;-67
2022/10/23 05:05:44;;;;;;;107.70;37.33;;;10.00;99.90;;;;;;5041952;28;20045;-67
2022/10/23 05:08:10;;;;;;;106.22;37.67;;;10.00;99.90;;;;;;5075647;28;20045;-67
2022/10/23 05:10:37;;;;;;;121.25;39.08;;;10.00;99.90;;;;;;5043584;28;20037;-67
2022/10/23 05:13:03;;;;;;;106.93;38.17;;;10.00;99.90;;;;;;5044198;28;20029;-67
2022/10/23 05:15:29;;;;;;;116.82;37.88;;;10.00;99.90;;;;;;5042854;28;20065;-67
2022/10/23 05:17:59;;;;;;;120.20;38.47;;;10.00;99.90;;;;;;5045274;28;20071;-67
2022/10/23 05:20:27;;;;;;;110.20;37.75;;;10.00;99.90;;;;;;5038119;28;20523;-67
2022/10/23 05:22:55;;;;;;;105.25;37.42;;;10.10;99.90;;;;;;5045875;28;20021;-67
2022/10/23 05:25:21;;;;;;;121.03;37.58;;;10.00;99.90;;;;;;5042186;28;20517;-67
2022/10/23 05:27:47;;;;;;;122.85;40.50;;;10.00;99.90;;;;;;5049169;28;20076;-67
2022/10/23 05:30:12;;;;;;;110.30;37.67;;;10.10;99.90;;;;;;5042488;28;20395;-68
2022/10/23 05:32:39;;;;;;;115.47;38.50;;;10.10;99.90;;;;;;5043633;28;20033;-68
2022/10/23 05:35:11;;;;;;;117.05;37.83;;;10.10;99.90;;;;;;5040490;28;20326;-67
2022/10/23 05:37:40;;;;;;;122.15;39.72;;;10.10;99.90;;;;;;5039101;28;20033;-68
2022/10/23 05:40:06;;;;;;;107.53;38.05;;;10.10;99.90;;;;;;5037301;28;20041;-68
2022/10/23 05:42:31;;;;;;;123.05;38.08;;;10.10;99.90;;;;;;5034728;28;20041;-67
2022/10/23 05:44:57;;;;;;;108.00;37.00;;;10.20;99.90;;;;;;5041648;28;20303;-67
2022/10/23 05:47:22;;;;;;;115.75;37.22;;;10.10;99.90;;;;;;5043798;28;20044;-68
2022/10/23 05:49:48;;;;;;;102.47;36.35;;;10.10;99.90;;;;;;5043847;28;20128;-68
2022/10/23 05:52:14;;;;;;;101.00;36.78;;;10.20;99.90;;;;;;5040305;28;20418;-68
2022/10/23 05:54:39;;;;;;;111.50;36.85;;;10.20;99.90;;;;;;5044270;28;20051;-67
2022/10/23 05:57:05;;;;;;;113.03;36.45;;;10.30;99.90;;;;;;5047303;28;20032;-67
2022/10/23 05:59:30;;;;;;;106.90;36.88;;;10.20;99.90;;;;;;5039040;28;20041;-68
2022/10/23 06:01:56;;;;;;;110.50;37.15;;;10.30;99.90;;;;;;5039966;28;20384;-67
2022/10/23 06:04:21;;;;;;;129.10;38.80;;;10.20;99.90;;;;;;5042442;28;20032;-67
2022/10/23 06:06:47;;;;;;;110.22;38.42;;;10.20;99.90;;;;;;5045761;28;20041;-67
2022/10/23 06:09:14;;;;;;;118.68;39.13;;;10.30;99.90;;;;;;5042813;28;20045;-67
2022/10/23 06:11:40;;;;;;;109.65;38.05;;;10.20;99.90;;;;;;5039093;28;20402;-68
2022/10/23 06:14:06;;;;;;;111.00;38.60;;;10.30;99.90;;;;;;5036201;28;20052;-67
2022/10/23 06:16:32;;;;;;;114.95;38.78;;;10.40;99.90;;;;;;5042897;28;20107;-67
2022/10/23 06:18:59;;;;;;;94.10;35.20;;;10.40;99.90;;;;;;5044609;28;20136;-67
2022/10/23 06:21:24;;;;;;;115.03;37.92;;;10.40;99.90;;;;;;5035232;28;20167;-68
2022/10/23 06:23:50;;;;;;;110.22;39.30;;;10.40;99.90;;;;;;5032908;28;20055;-68
2022/10/23 06:26:17;;;;;;;105.03;36.85;;;10.50;99.90;;;;;;5042874;28;20037;-67
2022/10/23 06:28:43;;;;;;;104.20;36.97;;;10.40;99.90;;;;;;5070520;28;20531;-67
2022/10/23 06:31:15;;;;;;;110.40;38.53;;;10.50;99.90;;;;;;5032331;28;20379;-67
2022/10/23 06:33:41;;;;;;;102.80;35.92;;;10.50;99.90;;;;;;5037631;28;20397;-67
2022/10/23 06:36:09;;;;;;;107.97;38.53;;;10.60;99.90;;;;;;5067260;28;20124;-67
2022/10/23 06:38:39;;;;;;;106.28;38.55;;;10.60;99.90;;;;;;5038843;28;20045;-68
2022/10/23 06:41:10;;;;;;;107.43;37.83;;;10.60;99.90;;;;;;5034876;28;20040;-67
2022/10/23 06:43:35;;;;;;;113.32;38.10;;;10.60;99.90;;;;;;5033708;28;20547;-67
2022/10/23 06:46:04;;;;;;;115.95;38.38;;;10.70;99.90;;;;;;5036824;28;20440;-68
2022/10/23 06:48:30;;;;;;;122.18;39.13;;;10.60;99.90;;;;;;5040987;28;20037;-67
2022/10/23 06:50:57;;;;;;;107.28;39.15;;;10.70;99.90;;;;;;5037544;28;20049;-67
2022/10/23 06:53:23;;;;;;;119.40;39.92;;;10.70;99.90;;;;;;5035309;28;20037;-67
2022/10/23 06:55:50;;;;;;;114.88;38.08;;;10.70;99.90;;;;;;5036275;28;20067;-67
2022/10/23 06:58:16;;;;;;;110.15;36.88;;;10.80;99.90;;;;;;5033809;28;20485;-68
2022/10/23 07:00:43;;;;;;;114.55;38.03;;;10.80;99.90;;;;;;5069135;28;20143;-68
2022/10/23 07:03:09;;;;;;;100.15;35.72;;;10.90;99.90;;;;;;5039650;28;20077;-67
2022/10/23 07:05:35;;;;;;;105.00;38.05;;;10.90;99.90;;;;;;5041398;28;20072;-67
2022/10/23 07:08:03;;;;;;;105.45;37.35;;;10.90;99.90;;;;;;5035024;28;20087;-66
2022/10/23 07:10:29;;;;;;;111.88;38.10;;;11.00;99.90;;;;;;5038012;28;20045;-66
2022/10/23 07:12:59;;;;;;;105.65;36.30;;;10.90;99.90;;;;;;5039227;28;20375;-66
2022/10/23 07:15:28;;;;;;;102.40;37.33;;;11.00;99.90;;;;;;5067818;28;20048;-66
2022/10/23 07:17:54;;;;;;;111.65;36.35;;;11.00;99.90;;;;;;5069559;28;20041;-66
2022/10/23 07:20:20;;;;;;;102.53;36.17;;;11.20;99.90;;;;;;5033438;28;20637;-66
2022/10/23 07:22:53;;;;;;;101.80;37.30;;;11.10;99.90;;;;;;5033470;28;20040;-66
2022/10/23 07:25:21;;;;;;;120.22;37.53;;;11.20;99.90;;;;;;5037735;28;20037;-66
2022/10/23 07:27:46;;;;;;;109.13;37.28;;;11.30;99.90;;;;;;5034510;28;20041;-66
2022/10/23 07:30:13;;;;;;;109.65;36.90;;;11.30;99.90;;;;;;5039318;28;20484;-66
2022/10/23 07:32:38;;;;;;;102.90;35.72;;;11.30;99.90;;;;;;5072988;28;20039;-66
2022/10/23 07:35:05;;;;;;;127.25;38.08;;;11.30;99.90;;;;;;5035600;28;20568;-66
2022/10/23 07:37:30;;;;;;;113.65;38.70;;;11.40;99.90;;;;;;5063016;28;20044;-67
2022/10/23 07:39:56;;;;;;;106.15;36.45;;;11.40;99.90;;;;;;5035391;28;20373;-67
2022/10/23 07:42:21;;;;;;;105.22;36.65;;;11.40;99.90;;;;;;5036104;28;20095;-66
2022/10/23 07:44:47;;;;;;;106.10;36.08;;;11.50;99.90;;;;;;5067185;28;20437;-66
2022/10/23 07:47:12;;;;;;;108.45;36.13;;;11.50;99.90;;;;;;5039650;28;20036;-67
2022/10/23 07:49:38;;;;;;;101.05;34.80;;;11.50;99.90;;;;;;5038072;28;20124;-67
2022/10/23 07:52:05;;;;;;;96.88;34.90;;;11.60;99.90;;;;;;5032697;28;20052;-67
2022/10/23 07:54:31;;;;;;;97.85;35.72;;;11.70;99.90;;;;;;5039045;28;20036;-66
2022/10/23 07:56:58;;;;;;;112.25;35.50;;;11.70;99.90;;;;;;5062158;28;20090;-66
2022/10/23 07:59:24;;;;;;;104.75;35.47;;;11.80;99.90;;;;;;5069229;28;20045;-67
2022/10/23 08:01:50;;;;;;;92.95;34.10;;;11.80;99.90;;;;;;5067170;28;20053;-67
2022/10/23 08:04:16;;;;;;;95.55;34.40;;;11.80;99.90;;;;;;5040737;28;20045;-66
2022/10/23 08:06:41;;;;;;;98.88;34.00;;;11.90;99.90;;;;;;5037496;28;20060;-66
2022/10/23 08:09:07;;;;;;;99.50;33.67;;;11.90;99.90;;;;;;5034024;28;20055;-66
2022/10/23 08:11:34;;;;;;;87.80;33.92;;;12.00;99.90;;;;;;5065430;28;20045;-66
2022/10/23 08:14:03;;;;;;;93.38;33.78;;;12.10;99.90;;;;;;5067962;28;20040;-66
2022/10/23 08:16:30;;;;;;;96.60;34.40;;;12.00;99.90;;;;;;5037642;28;20076;-66
2022/10/23 08:18:56;;;;;;;97.53;34.53;;;12.20;99.90;;;;;;5069547;28;20045;-66
2022/10/23 08:21:21;;;;;;;100.68;34.05;;;12.20;99.90;;;;;;5036497;28;20103;-66
2022/10/23 08:23:47;;;;;;;95.28;33.95;;;12.20;99.90;;;;;;5040388;28;20041;-66
2022/10/23 08:26:13;;;;;;;95.57;34.80;;;12.30;99.90;;;;;;5075039;28;20037;-66
2022/10/23 08:28:38;;;;;;;87.18;33.35;;;12.40;99.90;;;;;;5042276;28;20075;-66
2022/10/23 08:31:19;;;;;;;90.53;32.85;;;12.40;99.90;;;;;;5041024;28;20033;-65
2022/10/23 08:33:45;;;;;;;102.05;33.38;;;12.40;99.90;;;;;;5052932;28;20125;-66
2022/10/23 08:36:25;;;;;;;84.35;32.08;;;12.50;99.90;;;;;;5040478;28;20114;-66
2022/10/23 08:38:53;;;;;;;79.57;30.52;;;12.60;99.90;;;;;;5070213;28;20051;-66
2022/10/23 08:41:26;;;;;;;89.65;32.65;;;12.60;99.90;;;;;;5042960;28;20036;-66
2022/10/23 08:44:33;;;;;;;96.22;32.28;;;12.70;99.90;;;;;;5041250;28;20040;-66
2022/10/23 08:47:04;;;;;;;85.00;31.23;;;12.90;99.90;;;;;;5034165;28;20107;-68
2022/10/23 08:49:48;;;;;;;86.07;30.63;;;13.00;99.90;;;;;;5075964;28;20399;-64
2022/10/23 08:52:26;;;;;;;90.88;31.17;;;13.00;99.90;;;;;;5040683;28;20379;-65
2022/10/23 08:54:56;;;;;;;76.45;29.52;;;13.00;99.90;;;;;;5038708;28;20079;-65
2022/10/23 08:57:25;;;;;;;92.78;30.08;;;13.20;99.90;;;;;;5070476;28;20051;-65
2022/10/23 08:59:59;;;;;;;79.78;29.50;;;13.20;99.90;;;;;;5035313;28;20486;-63
2022/10/23 09:02:44;;;;;;;98.45;30.40;;;13.30;99.90;;;;;;5045146;28;20471;-64
2022/10/23 09:05:23;;;;;;;77.88;28.27;;;13.40;99.90;;;;;;5050593;28;20083;-64
2022/10/23 09:07:49;;;;;;;77.13;27.50;;;13.40;99.90;;;;;;5047118;28;20064;-64
2022/10/23 09:10:56;;;;;;;78.88;29.58;;;13.50;99.90;;;;;;5051988;28;20048;-64
2022/10/23 09:13:43;;;;;;;74.32;27.20;;;13.60;99.90;;;;;;5042147;28;20046;-64
2022/10/23 09:16:31;;;;;;;77.80;26.85;;;13.70;99.90;;;;;;5051589;28;20523;-64
2022/10/23 09:18:57;;;;;;;71.95;25.75;;;13.70;99.90;;;;;;5042126;28;20488;-64
2022/10/23 09:21:29;;;;;;;66.63;25.65;;;13.80;99.90;;;;;;5037863;28;20036;-64
2022/10/23 09:23:55;;;;;;;72.57;25.98;;;13.90;99.90;;;;;;5050727;28;20140;-64
2022/10/23 09:26:21;;;;;;;65.93;26.23;;;13.90;99.90;;;;;;5051069;28;20124;-64
2022/10/23 09:29:01;;;;;;;81.10;26.98;;;14.00;99.90;;;;;;5044349;28;20238;-64
2022/10/23 09:31:27;;;;;;;58.97;25.00;;;14.10;99.90;;;;;;5070000;28;20236;-64
2022/10/23 09:33:58;;;;;;;69.90;24.92;;;14.20;99.90;;;;;;5041896;28;20037;-64
2022/10/23 09:36:26;;;;;;;64.28;24.85;;;14.20;99.90;;;;;;5074949;28;20045;-66
2022/10/23 09:38:53;;;;;;;74.07;26.70;;;14.20;99.90;;;;;;5047073;28;20174;-66
2022/10/23 09:41:46;;;;;;;65.57;24.50;;;14.20;99.90;;;;;;5046696;28;20049;-65
2022/10/23 09:44:20;;;;;;;63.55;24.27;;;14.20;99.90;;;;;;5045055;28;20136;-66
2022/10/23 09:46:49;;;;;;;65.32;24.67;;;14.20;99.90;;;;;;5044817;28;20055;-66
2022/10/23 09:49:26;;;;;;;66.85;24.80;;;14.30;99.90;;;;;;5065959;28;20029;-66
2022/10/23 09:52:01;;;;;;;72.80;24.92;;;14.40;99.90;;;;;;5044849;28;20499;-65
2022/10/23 09:54:29;;;;;;;60.22;24.00;;;14.50;99.90;;;;;;5033626;28;20119;-65
2022/10/23 09:57:02;;;;;;;61.17;23.90;;;14.40;99.90;;;;;;5049770;28;20036;-66
2022/10/23 09:59:28;;;;;;;;;;;14.50;99.90;;;;;;5048115;28;20407;-66
2022/10/23 10:02:18;;;;;;;56.13;22.60;;;14.60;99.90;;;;;;5045329;28;19924;-66
2022/10/23 10:04:44;;;;;;;56.17;21.30;;;14.50;99.90;;;;;;5083173;28;20068;-66
2022/10/23 10:07:20;;;;;;;58.80;22.25;;;14.60;99.90;;;;;;5051899;28;20048;-66
2022/10/23 10:09:46;;;;;;;58.65;21.30;;;14.70;99.90;;;;;;5049755;28;20104;-66
2022/10/23 10:12:54;;;;;;;57.05;22.92;;;14.70;99.90;;;;;;5041790;28;20123;-66
2022/10/23 10:15:25;;;;;;;61.65;21.92;;;14.70;99.90;;;;;;5066959;28;20033;-66
2022/10/23 10:18:01;;;;;;;60.50;21.60;;;14.80;99.90;;;;;;5082154;28;20044;-66
2022/10/23 10:20:55;;;;;;;58.05;21.55;;;14.90;99.90;;;;;;5052043;28;20095;-66
2022/10/23 10:23:28;;;;;;;59.55;22.25;;;14.80;99.90;;;;;;5045102;28;20041;-65
2022/10/23 10:26:09;;;;;;;52.03;21.35;;;14.90;99.90;;;;;;5051400;28;20041;-66
2022/10/23 10:29:00;;;;;;;54.10;20.00;;;15.00;99.90;;;;;;5033042;28;20049;-66
2022/10/23 10:31:55;;;;;;;48.75;19.67;;;15.00;99.90;;;;;;5042082;28;20045;-66
2022/10/23 10:34:37;;;;;;;56.45;19.95;;;15.00;99.90;;;;;;5017725;28;20056;-66
2022/10/23 10:37:17;;;;;;;48.00;19.35;;;14.90;99.90;;;;;;5052175;28;20111;-67
2022/10/23 10:40:34;;;;;;;53.42;19.60;;;15.00;99.90;;;;;;5043579;28;20038;-66
2022/10/23 10:43:31;;;;;;;42.95;18.00;;;15.00;99.90;;;;;;5016937;28;20052;-66
2022/10/23 10:46:11;;;;;;;45.22;18.88;;;15.00;99.90;;;;;;5049220;28;20041;-65
2022/10/23 10:48:50;;;;;;;54.13;19.70;;;15.00;99.90;;;;;;5052317;28;20037;-65
2022/10/23 10:51:39;;;;;;;48.65;18.88;;;14.90;99.90;;;;;;5049555;28;20446;-65
2022/10/23 10:54:37;;;;;;;45.03;18.90;;;14.90;99.90;;;;;;5048426;28;20037;-65
2022/10/23 10:57:26;;;;;;;58.85;19.55;;;14.90;99.90;;;;;;5042367;28;20056;-66
2022/10/23 10:59:54;;;;;;;49.45;19.15;;;14.90;99.90;;;;;;5051030;28;20040;-67
2022/10/23 11:02:30;;;;;;;41.60;19.10;;;15.00;99.90;;;;;;5046582;28;20052;-66
2022/10/23 11:04:59;;;;;;;58.65;20.05;;;14.90;99.90;;;;;;5050222;28;20068;-66
2022/10/23 11:07:32;;;;;;;46.42;19.20;;;14.90;99.90;;;;;;5051634;28;20048;-65
2022/10/23 11:09:59;;;;;;;47.15;19.05;;;14.90;99.90;;;;;;5051902;28;20138;-65
2022/10/23 11:12:26;;;;;;;50.55;18.85;;;14.80;99.90;;;;;;5050353;28;20072;-66
2022/10/23 11:14:52;;;;;;;57.13;18.90;;;14.80;99.90;;;;;;5051931;28;20041;-65
2022/10/23 11:17:24;;;;;;;50.95;18.40;;;14.80;99.90;;;;;;5051771;28;20052;-65
2022/10/23 11:19:57;;;;;;;44.95;17.83;;;14.80;99.90;;;;;;5039802;28;20045;-65
2022/10/23 11:23:01;;;;;;;44.70;17.50;;;14.80;99.90;;;;;;5042874;28;20036;-65
2022/10/23 11:25:55;;;;;;;51.15;16.88;;;14.70;99.90;;;;;;5050040;28;20041;-65
2022/10/23 11:28:51;;;;;;;43.45;17.83;;;14.70;99.90;;;;;;5046772;28;20045;-65
2022/10/23 11:31:32;;;;;;;43.15;17.05;;;14.80;99.90;;;;;;5047469;28;20049;-66
2022/10/23 11:34:03;;;;;;;40.53;17.00;;;14.80;99.90;;;;;;5039148;28;20064;-66
2022/10/23 11:36:44;;;;;;;45.90;17.40;;;14.90;99.90;;;;;;5049565;28;20048;-65
2022/10/23 11:39:30;;;;;;;48.10;17.80;;;14.90;99.90;;;;;;5039521;28;20040;-65
2022/10/23 11:42:13;;;;;;;52.88;18.98;;;15.00;99.90;;;;;;5051737;28;20080;-65
2022/10/23 11:44:40;;;;;;;44.75;17.65;;;14.90;99.90;;;;;;5049688;28;20125;-65
2022/10/23 11:47:36;;;;;;;42.85;17.25;;;15.00;99.90;;;;;;5050901;28;20116;-66
2022/10/23 11:50:44;;;;;;;39.90;16.85;;;15.00;99.90;;;;;;5050649;28;20041;-65
2022/10/23 11:53:31;;;;;;;44.35;16.75;;;15.00;99.90;;;;;;5039126;28;20045;-66
2022/10/23 11:56:05;;;;;;;42.58;16.92;;;15.00;99.90;;;;;;5083233;28;20484;-65
2022/10/23 11:58:53;;;;;;;41.83;16.30;;;15.00;99.90;;;;;;5049859;28;20557;-65
2022/10/23 12:01:28;;;;;;;44.75;16.92;;;15.00;99.90;;;;;;5042070;28;20483;-65
2022/10/23 12:04:13;;;;;;;46.20;15.98;;;14.90;99.90;;;;;;5050325;28;20037;-65
2022/10/23 12:06:52;;;;;;;39.92;15.57;;;14.90;99.90;;;;;;5043135;28;20045;-65
2022/10/23 12:09:23;;;;;;;42.10;15.90;;;14.90;99.90;;;;;;5047211;28;20034;-65
2022/10/23 12:12:01;;;;;;;38.37;15.37;;;14.90;99.90;;;;;;5043607;28;20468;-65
2022/10/23 12:14:30;;;;;;;44.42;15.20;;;14.90;99.90;;;;;;5033996;28;20043;-65
2022/10/23 12:16:56;;;;;;;39.25;15.55;;;15.00;99.90;;;;;;5038297;28;20087;-65
2022/10/23 12:19:24;;;;;;;41.53;15.88;;;15.00;99.90;;;;;;5045580;28;20037;-64
2022/10/23 12:21:56;;;;;;;43.40;15.02;;;15.00;99.90;;;;;;5050981;28;20127;-65
2022/10/23 12:24:27;;;;;;;41.25;14.20;;;15.10;99.90;;;;;;5050848;28;20064;-66
2022/10/23 12:27:12;;;;;;;39.95;15.10;;;15.10;99.90;;;;;;5035201;28;20053;-65
2022/10/23 12:29:58;;;;;;;34.33;13.80;;;14.90;99.90;;;;;;5040542;28;20037;-65
2022/10/23 12:32:49;;;;;;;37.00;14.15;;;15.10;99.90;;;;;;5035769;28;20042;-65
2022/10/23 12:35:47;;;;;;;38.33;14.55;;;15.00;99.90;;;;;;5037463;28;20419;-65
2022/10/23 12:38:18;;;;;;;34.03;14.10;;;15.00;99.90;;;;;;5061814;28;20067;-65
2022/10/23 12:40:49;;;;;;;39.88;14.23;;;15.00;99.90;;;;;;5038240;28;20040;-65
2022/10/23 12:43:27;;;;;;;46.55;13.65;;;15.10;99.90;;;;;;5074832;28;20045;-65
2022/10/23 12:45:55;;;;;;;38.40;13.65;;;15.00;99.90;;;;;;5074921;28;20042;-65